sensor_id;sensor_type;location;lat;lon;timestamp;temperature;humidity
22544;DHT22;11438;52.044;8.716;2023-05-16T00:01:25;15.10;93.60
22544;DHT22;11438;52.044;8.716;2023-05-16T00:03:55;15.00;93.70
22544;DHT22;11438;52.044;8.716;2023-05-16T00:06:20;15.00;93.60
22544;DHT22;11438;52.044;8.716;2023-05-16T00:08:46;15.00;93.80
22544;DHT22;11438;52.044;8.716;2023-05-16T00:11:12;14.90;93.80
22544;DHT22;11438;52.044;8.716;2023-05-16T00:13:38;14.90;93.90
22544;DHT22;11438;52.044;8.716;2023-05-16T00:16:07;14.90;94.00
22544;DHT22;11438;52.044;8.716;2023-05-16T00:18:33;14.90;93.90
22544;DHT22;11438;52.044;8.716;2023-05-16T00:21:04;14.90;94.10
22544;DHT22;11438;52.044;8.716;2023-05-16T00:23:30;14.90;94.10
22544;DHT22;11438;52.044;8.716;2023-05-16T00:25:56;14.90;94.10
22544;DHT22;11438;52.044;8.716;2023-05-16T00:28:21;14.90;94.10
22544;DHT22;11438;52.044;8.716;2023-05-16T00:30:47;14.90;94.20
22544;DHT22;11438;52.044;8.716;2023-05-16T00:33:13;14.90;94.20
22544;DHT22;11438;52.044;8.716;2023-05-16T00:35:38;14.80;94.30
22544;DHT22;11438;52.044;8.716;2023-05-16T00:38:04;14.90;94.40
22544;DHT22;11438;52.044;8.716;2023-05-16T00:40:31;14.80;94.40
22544;DHT22;11438;52.044;8.716;2023-05-16T00:42:56;14.80;94.50
22544;DHT22;11438;52.044;8.716;2023-05-16T00:45:22;14.80;94.60
22544;DHT22;11438;52.044;8.716;2023-05-16T00:47:49;14.80;94.60
22544;DHT22;11438;52.044;8.716;2023-05-16T00:50:15;14.80;94.60
22544;DHT22;11438;52.044;8.716;2023-05-16T00:52:40;14.80;94.70
22544;DHT22;11438;52.044;8.716;2023-05-16T00:55:07;14.80;94.80
22544;DHT22;11438;52.044;8.716;2023-05-16T00:57:36;14.70;94.90
22544;DHT22;11438;52.044;8.716;2023-05-16T01:00:03;14.70;95.00
22544;DHT22;11438;52.044;8.716;2023-05-16T01:02:28;14.70;95.00
22544;DHT22;11438;52.044;8.716;2023-05-16T01:04:54;14.70;95.00
22544;DHT22;11438;52.044;8.716;2023-05-16T01:07:21;14.70;95.00
22544;DHT22;11438;52.044;8.716;2023-05-16T01:09:46;14.70;95.00
22544;DHT22;11438;52.044;8.716;2023-05-16T01:12:27;14.70;95.00
22544;DHT22;11438;52.044;8.716;2023-05-16T01:15:17;14.70;95.10
22544;DHT22;11438;52.044;8.716;2023-05-16T01:20:32;14.70;95.00
22544;DHT22;11438;52.044;8.716;2023-05-16T01:23:10;14.70;94.90
22544;DHT22;11438;52.044;8.716;2023-05-16T01:25:54;14.70;94.90
22544;DHT22;11438;52.044;8.716;2023-05-16T01:28:21;14.70;94.80
22544;DHT22;11438;52.044;8.716;2023-05-16T01:30:47;14.70;94.70
22544;DHT22;11438;52.044;8.716;2023-05-16T01:33:15;14.70;94.70
22544;DHT22;11438;52.044;8.716;2023-05-16T01:36:05;14.70;94.70
22544;DHT22;11438;52.044;8.716;2023-05-16T01:38:48;14.70;94.90
22544;DHT22;11438;52.044;8.716;2023-05-16T01:41:28;14.70;94.90
22544;DHT22;11438;52.044;8.716;2023-05-16T01:44:05;14.70;94.90
22544;DHT22;11438;52.044;8.716;2023-05-16T01:46:36;14.70;94.90
22544;DHT22;11438;52.044;8.716;2023-05-16T01:51:44;14.70;95.00
22544;DHT22;11438;52.044;8.716;2023-05-16T01:54:11;14.70;94.90
22544;DHT22;11438;52.044;8.716;2023-05-16T01:56:38;14.70;94.90
22544;DHT22;11438;52.044;8.716;2023-05-16T01:59:05;14.70;95.00
22544;DHT22;11438;52.044;8.716;2023-05-16T02:01:32;14.70;95.10
22544;DHT22;11438;52.044;8.716;2023-05-16T02:03:58;14.70;95.30
22544;DHT22;11438;52.044;8.716;2023-05-16T02:06:23;14.70;95.40
22544;DHT22;11438;52.044;8.716;2023-05-16T02:08:50;14.70;95.50
22544;DHT22;11438;52.044;8.716;2023-05-16T02:11:16;14.70;95.60
22544;DHT22;11438;52.044;8.716;2023-05-16T02:13:41;14.70;95.40
22544;DHT22;11438;52.044;8.716;2023-05-16T02:16:07;14.60;95.50
22544;DHT22;11438;52.044;8.716;2023-05-16T02:18:35;14.60;95.60
22544;DHT22;11438;52.044;8.716;2023-05-16T02:21:00;14.50;95.60
22544;DHT22;11438;52.044;8.716;2023-05-16T02:23:25;14.50;95.80
22544;DHT22;11438;52.044;8.716;2023-05-16T02:25:51;14.40;95.80
22544;DHT22;11438;52.044;8.716;2023-05-16T02:28:16;14.40;95.90
22544;DHT22;11438;52.044;8.716;2023-05-16T02:30:42;14.40;96.00
22544;DHT22;11438;52.044;8.716;2023-05-16T02:33:07;14.30;96.10
22544;DHT22;11438;52.044;8.716;2023-05-16T02:35:33;14.20;96.00
22544;DHT22;11438;52.044;8.716;2023-05-16T02:37:59;14.20;96.10
22544;DHT22;11438;52.044;8.716;2023-05-16T02:40:24;14.20;96.20
22544;DHT22;11438;52.044;8.716;2023-05-16T02:42:49;14.10;96.10
22544;DHT22;11438;52.044;8.716;2023-05-16T02:45:15;14.10;96.10
22544;DHT22;11438;52.044;8.716;2023-05-16T02:47:41;14.00;96.10
22544;DHT22;11438;52.044;8.716;2023-05-16T02:50:06;14.00;96.10
22544;DHT22;11438;52.044;8.716;2023-05-16T02:52:32;14.00;96.00
22544;DHT22;11438;52.044;8.716;2023-05-16T02:54:57;14.00;96.00
22544;DHT22;11438;52.044;8.716;2023-05-16T02:57:23;14.00;96.00
22544;DHT22;11438;52.044;8.716;2023-05-16T02:59:48;13.90;96.00
22544;DHT22;11438;52.044;8.716;2023-05-16T03:02:14;13.90;96.00
22544;DHT22;11438;52.044;8.716;2023-05-16T03:04:39;13.80;96.00
22544;DHT22;11438;52.044;8.716;2023-05-16T03:07:05;13.80;96.00
22544;DHT22;11438;52.044;8.716;2023-05-16T03:09:30;13.80;96.00
22544;DHT22;11438;52.044;8.716;2023-05-16T03:11:56;13.80;96.40
22544;DHT22;11438;52.044;8.716;2023-05-16T03:14:21;13.80;96.00
22544;DHT22;11438;52.044;8.716;2023-05-16T03:16:47;13.80;96.00
22544;DHT22;11438;52.044;8.716;2023-05-16T03:19:13;13.70;95.90
22544;DHT22;11438;52.044;8.716;2023-05-16T03:21:38;13.70;95.90
22544;DHT22;11438;52.044;8.716;2023-05-16T03:24:04;13.70;95.90
22544;DHT22;11438;52.044;8.716;2023-05-16T03:26:30;13.70;95.90
22544;DHT22;11438;52.044;8.716;2023-05-16T03:28:55;13.70;95.90
22544;DHT22;11438;52.044;8.716;2023-05-16T03:31:21;13.70;95.90
22544;DHT22;11438;52.044;8.716;2023-05-16T03:33:46;13.70;95.90
22544;DHT22;11438;52.044;8.716;2023-05-16T03:36:12;13.70;95.80
22544;DHT22;11438;52.044;8.716;2023-05-16T03:38:37;13.70;95.80
22544;DHT22;11438;52.044;8.716;2023-05-16T03:41:03;13.70;95.80
22544;DHT22;11438;52.044;8.716;2023-05-16T03:43:28;13.70;95.90
22544;DHT22;11438;52.044;8.716;2023-05-16T03:45:54;13.70;95.90
22544;DHT22;11438;52.044;8.716;2023-05-16T03:48:20;13.70;95.70
22544;DHT22;11438;52.044;8.716;2023-05-16T03:50:46;13.70;95.60
22544;DHT22;11438;52.044;8.716;2023-05-16T03:53:12;13.70;95.50
22544;DHT22;11438;52.044;8.716;2023-05-16T03:55:37;13.70;95.40
22544;DHT22;11438;52.044;8.716;2023-05-16T03:58:03;13.70;95.30
22544;DHT22;11438;52.044;8.716;2023-05-16T04:00:28;13.70;95.30
22544;DHT22;11438;52.044;8.716;2023-05-16T04:02:54;13.70;95.30
22544;DHT22;11438;52.044;8.716;2023-05-16T04:05:19;13.70;95.30
22544;DHT22;11438;52.044;8.716;2023-05-16T04:07:45;13.60;95.10
22544;DHT22;11438;52.044;8.716;2023-05-16T04:10:11;13.60;94.90
22544;DHT22;11438;52.044;8.716;2023-05-16T04:12:36;13.60;94.90
22544;DHT22;11438;52.044;8.716;2023-05-16T04:15:03;13.60;94.90
22544;DHT22;11438;52.044;8.716;2023-05-16T04:17:29;13.60;94.90
22544;DHT22;11438;52.044;8.716;2023-05-16T04:19:54;13.60;94.90
22544;DHT22;11438;52.044;8.716;2023-05-16T04:22:21;13.50;94.90
22544;DHT22;11438;52.044;8.716;2023-05-16T04:24:47;13.50;94.90
22544;DHT22;11438;52.044;8.716;2023-05-16T04:27:13;13.50;94.80
22544;DHT22;11438;52.044;8.716;2023-05-16T04:29:38;13.50;94.90
22544;DHT22;11438;52.044;8.716;2023-05-16T04:32:04;13.40;94.80
22544;DHT22;11438;52.044;8.716;2023-05-16T04:34:30;13.40;94.80
22544;DHT22;11438;52.044;8.716;2023-05-16T04:36:58;13.40;94.80
22544;DHT22;11438;52.044;8.716;2023-05-16T04:39:24;13.40;94.80
22544;DHT22;11438;52.044;8.716;2023-05-16T04:41:50;13.30;94.90
22544;DHT22;11438;52.044;8.716;2023-05-16T04:44:15;13.30;94.90
22544;DHT22;11438;52.044;8.716;2023-05-16T04:46:41;13.30;94.80
22544;DHT22;11438;52.044;8.716;2023-05-16T04:49:07;13.20;94.80
22544;DHT22;11438;52.044;8.716;2023-05-16T04:51:32;13.20;94.90
22544;DHT22;11438;52.044;8.716;2023-05-16T04:53:59;13.20;95.00
22544;DHT22;11438;52.044;8.716;2023-05-16T04:56:24;13.20;95.00
22544;DHT22;11438;52.044;8.716;2023-05-16T04:58:51;13.20;94.80
22544;DHT22;11438;52.044;8.716;2023-05-16T05:01:16;13.10;94.80
22544;DHT22;11438;52.044;8.716;2023-05-16T05:03:42;13.10;94.90
22544;DHT22;11438;52.044;8.716;2023-05-16T05:06:07;13.10;94.90
22544;DHT22;11438;52.044;8.716;2023-05-16T05:08:33;13.10;94.90
22544;DHT22;11438;52.044;8.716;2023-05-16T05:10:58;13.10;94.80
22544;DHT22;11438;52.044;8.716;2023-05-16T05:13:24;13.10;94.70
22544;DHT22;11438;52.044;8.716;2023-05-16T05:15:49;13.10;94.60
22544;DHT22;11438;52.044;8.716;2023-05-16T05:18:16;13.10;94.50
22544;DHT22;11438;52.044;8.716;2023-05-16T05:20:42;13.10;94.50
22544;DHT22;11438;52.044;8.716;2023-05-16T05:23:08;13.10;94.50
22544;DHT22;11438;52.044;8.716;2023-05-16T05:25:35;13.10;94.50
22544;DHT22;11438;52.044;8.716;2023-05-16T05:28:01;13.00;94.20
22544;DHT22;11438;52.044;8.716;2023-05-16T05:30:26;13.10;94.30
22544;DHT22;11438;52.044;8.716;2023-05-16T05:32:52;13.10;94.20
22544;DHT22;11438;52.044;8.716;2023-05-16T05:35:19;13.00;94.10
22544;DHT22;11438;52.044;8.716;2023-05-16T05:37:45;13.00;94.20
22544;DHT22;11438;52.044;8.716;2023-05-16T05:40:10;13.00;94.20
22544;DHT22;11438;52.044;8.716;2023-05-16T05:42:36;13.00;94.30
22544;DHT22;11438;52.044;8.716;2023-05-16T05:45:01;12.90;94.40
22544;DHT22;11438;52.044;8.716;2023-05-16T05:47:27;12.90;94.40
22544;DHT22;11438;52.044;8.716;2023-05-16T05:49:52;12.90;94.30
22544;DHT22;11438;52.044;8.716;2023-05-16T05:52:18;12.90;94.40
22544;DHT22;11438;52.044;8.716;2023-05-16T05:54:43;12.90;94.40
22544;DHT22;11438;52.044;8.716;2023-05-16T05:57:09;12.80;94.40
22544;DHT22;11438;52.044;8.716;2023-05-16T05:59:34;12.80;94.60
22544;DHT22;11438;52.044;8.716;2023-05-16T06:02:00;12.90;94.70
22544;DHT22;11438;52.044;8.716;2023-05-16T06:04:26;12.80;94.70
22544;DHT22;11438;52.044;8.716;2023-05-16T06:06:51;12.80;94.60
22544;DHT22;11438;52.044;8.716;2023-05-16T06:09:17;12.80;94.60
22544;DHT22;11438;52.044;8.716;2023-05-16T06:11:42;12.80;94.50
22544;DHT22;11438;52.044;8.716;2023-05-16T06:14:10;12.80;94.60
22544;DHT22;11438;52.044;8.716;2023-05-16T06:16:36;12.80;94.60
22544;DHT22;11438;52.044;8.716;2023-05-16T06:19:02;12.80;94.70
22544;DHT22;11438;52.044;8.716;2023-05-16T06:21:28;12.80;94.70
22544;DHT22;11438;52.044;8.716;2023-05-16T06:23:53;12.80;94.80
22544;DHT22;11438;52.044;8.716;2023-05-16T06:26:19;12.80;94.80
22544;DHT22;11438;52.044;8.716;2023-05-16T06:28:46;12.80;94.80
22544;DHT22;11438;52.044;8.716;2023-05-16T06:31:12;12.70;94.60
22544;DHT22;11438;52.044;8.716;2023-05-16T06:33:37;12.80;94.70
22544;DHT22;11438;52.044;8.716;2023-05-16T06:36:03;12.80;94.60
22544;DHT22;11438;52.044;8.716;2023-05-16T06:38:29;12.90;94.50
22544;DHT22;11438;52.044;8.716;2023-05-16T06:40:54;12.90;94.30
22544;DHT22;11438;52.044;8.716;2023-05-16T06:43:20;12.90;94.20
22544;DHT22;11438;52.044;8.716;2023-05-16T06:45:45;12.90;94.20
22544;DHT22;11438;52.044;8.716;2023-05-16T06:48:12;13.00;93.90
22544;DHT22;11438;52.044;8.716;2023-05-16T06:50:39;13.00;93.40
22544;DHT22;11438;52.044;8.716;2023-05-16T06:53:04;13.00;93.40
22544;DHT22;11438;52.044;8.716;2023-05-16T06:55:32;13.00;93.10
22544;DHT22;11438;52.044;8.716;2023-05-16T06:57:57;13.00;93.20
22544;DHT22;11438;52.044;8.716;2023-05-16T07:00:23;13.00;93.20
22544;DHT22;11438;52.044;8.716;2023-05-16T07:02:48;13.00;93.30
22544;DHT22;11438;52.044;8.716;2023-05-16T07:05:14;13.10;93.70
22544;DHT22;11438;52.044;8.716;2023-05-16T07:07:40;13.10;93.40
22544;DHT22;11438;52.044;8.716;2023-05-16T07:10:06;13.20;93.20
22544;DHT22;11438;52.044;8.716;2023-05-16T07:12:31;13.20;92.90
22544;DHT22;11438;52.044;8.716;2023-05-16T07:14:57;13.30;92.70
22544;DHT22;11438;52.044;8.716;2023-05-16T07:17:22;13.30;92.10
22544;DHT22;11438;52.044;8.716;2023-05-16T07:19:48;13.40;92.00
22544;DHT22;11438;52.044;8.716;2023-05-16T07:22:14;13.50;92.40
22544;DHT22;11438;52.044;8.716;2023-05-16T07:24:40;13.50;91.90
22544;DHT22;11438;52.044;8.716;2023-05-16T07:27:05;13.60;91.60
22544;DHT22;11438;52.044;8.716;2023-05-16T07:29:31;13.70;91.60
22544;DHT22;11438;52.044;8.716;2023-05-16T07:31:56;13.70;91.30
22544;DHT22;11438;52.044;8.716;2023-05-16T07:34:22;13.80;91.20
22544;DHT22;11438;52.044;8.716;2023-05-16T07:36:47;13.80;91.20
22544;DHT22;11438;52.044;8.716;2023-05-16T07:39:13;13.90;90.90
22544;DHT22;11438;52.044;8.716;2023-05-16T07:41:39;13.90;90.70
22544;DHT22;11438;52.044;8.716;2023-05-16T07:44:04;14.00;90.60
22544;DHT22;11438;52.044;8.716;2023-05-16T07:46:30;14.00;90.80
22544;DHT22;11438;52.044;8.716;2023-05-16T07:48:55;14.10;90.30
22544;DHT22;11438;52.044;8.716;2023-05-16T07:51:21;14.10;91.10
22544;DHT22;11438;52.044;8.716;2023-05-16T07:53:46;14.10;91.10
22544;DHT22;11438;52.044;8.716;2023-05-16T07:56:12;14.20;90.20
22544;DHT22;11438;52.044;8.716;2023-05-16T07:58:37;14.30;89.10
22544;DHT22;11438;52.044;8.716;2023-05-16T08:01:03;14.30;90.00
22544;DHT22;11438;52.044;8.716;2023-05-16T08:03:29;14.40;88.70
22544;DHT22;11438;52.044;8.716;2023-05-16T08:05:55;14.40;89.50
22544;DHT22;11438;52.044;8.716;2023-05-16T08:08:20;14.40;89.10
22544;DHT22;11438;52.044;8.716;2023-05-16T08:10:46;14.50;90.20
22544;DHT22;11438;52.044;8.716;2023-05-16T08:13:11;14.50;90.70
22544;DHT22;11438;52.044;8.716;2023-05-16T08:15:37;14.60;90.20
22544;DHT22;11438;52.044;8.716;2023-05-16T08:18:02;14.70;90.10
22544;DHT22;11438;52.044;8.716;2023-05-16T08:20:28;14.70;90.00
22544;DHT22;11438;52.044;8.716;2023-05-16T08:22:53;14.80;88.70
22544;DHT22;11438;52.044;8.716;2023-05-16T08:25:19;14.80;87.50
22544;DHT22;11438;52.044;8.716;2023-05-16T08:27:45;14.80;87.50
22544;DHT22;11438;52.044;8.716;2023-05-16T08:30:11;14.80;87.80
22544;DHT22;11438;52.044;8.716;2023-05-16T08:32:37;14.90;88.70
22544;DHT22;11438;52.044;8.716;2023-05-16T08:35:03;14.90;87.20
22544;DHT22;11438;52.044;8.716;2023-05-16T08:37:29;15.00;88.20
22544;DHT22;11438;52.044;8.716;2023-05-16T08:39:54;15.00;87.70
22544;DHT22;11438;52.044;8.716;2023-05-16T08:42:20;15.00;87.10
22544;DHT22;11438;52.044;8.716;2023-05-16T08:44:45;15.10;87.10
22544;DHT22;11438;52.044;8.716;2023-05-16T08:47:15;15.10;86.90
22544;DHT22;11438;52.044;8.716;2023-05-16T08:49:43;15.20;86.60
22544;DHT22;11438;52.044;8.716;2023-05-16T08:52:09;15.20;87.50
22544;DHT22;11438;52.044;8.716;2023-05-16T08:54:36;15.30;86.60
22544;DHT22;11438;52.044;8.716;2023-05-16T08:57:03;15.30;85.70
22544;DHT22;11438;52.044;8.716;2023-05-16T08:59:28;15.40;85.30
22544;DHT22;11438;52.044;8.716;2023-05-16T09:01:55;15.40;83.80
22544;DHT22;11438;52.044;8.716;2023-05-16T09:04:21;15.40;84.20
22544;DHT22;11438;52.044;8.716;2023-05-16T09:06:49;15.50;85.30
22544;DHT22;11438;52.044;8.716;2023-05-16T09:09:15;15.50;85.10
22544;DHT22;11438;52.044;8.716;2023-05-16T09:11:41;15.60;84.30
22544;DHT22;11438;52.044;8.716;2023-05-16T09:14:06;15.70;83.10
22544;DHT22;11438;52.044;8.716;2023-05-16T09:16:32;15.70;84.10
22544;DHT22;11438;52.044;8.716;2023-05-16T09:18:59;15.80;85.10
22544;DHT22;11438;52.044;8.716;2023-05-16T09:21:27;15.80;82.40
22544;DHT22;11438;52.044;8.716;2023-05-16T09:23:53;15.80;83.60
22544;DHT22;11438;52.044;8.716;2023-05-16T09:26:19;15.80;84.10
22544;DHT22;11438;52.044;8.716;2023-05-16T09:28:46;15.90;84.00
22544;DHT22;11438;52.044;8.716;2023-05-16T09:31:25;15.90;84.70
22544;DHT22;11438;52.044;8.716;2023-05-16T09:33:54;15.90;85.60
22544;DHT22;11438;52.044;8.716;2023-05-16T09:36:20;16.00;83.90
22544;DHT22;11438;52.044;8.716;2023-05-16T09:38:46;16.10;83.40
22544;DHT22;11438;52.044;8.716;2023-05-16T09:41:12;16.10;83.00
22544;DHT22;11438;52.044;8.716;2023-05-16T09:43:39;16.20;81.70
22544;DHT22;11438;52.044;8.716;2023-05-16T09:46:04;16.20;81.60
22544;DHT22;11438;52.044;8.716;2023-05-16T09:48:31;16.20;82.60
22544;DHT22;11438;52.044;8.716;2023-05-16T09:50:57;16.30;82.40
22544;DHT22;11438;52.044;8.716;2023-05-16T09:53:30;16.30;82.00
22544;DHT22;11438;52.044;8.716;2023-05-16T09:56:00;16.40;81.00
22544;DHT22;11438;52.044;8.716;2023-05-16T09:58:30;16.50;81.30
22544;DHT22;11438;52.044;8.716;2023-05-16T10:00:57;16.50;80.50
22544;DHT22;11438;52.044;8.716;2023-05-16T10:03:24;16.60;78.80
22544;DHT22;11438;52.044;8.716;2023-05-16T10:05:50;16.60;78.80
22544;DHT22;11438;52.044;8.716;2023-05-16T10:08:20;16.60;78.40
22544;DHT22;11438;52.044;8.716;2023-05-16T10:10:46;16.60;79.60
22544;DHT22;11438;52.044;8.716;2023-05-16T10:13:14;16.60;79.60
22544;DHT22;11438;52.044;8.716;2023-05-16T10:15:40;16.60;80.00
22544;DHT22;11438;52.044;8.716;2023-05-16T10:18:07;16.70;79.40
22544;DHT22;11438;52.044;8.716;2023-05-16T10:20:38;16.70;80.00
22544;DHT22;11438;52.044;8.716;2023-05-16T10:23:06;16.70;78.10
22544;DHT22;11438;52.044;8.716;2023-05-16T10:25:37;16.80;79.10
22544;DHT22;11438;52.044;8.716;2023-05-16T10:28:04;16.80;78.40
22544;DHT22;11438;52.044;8.716;2023-05-16T10:30:32;16.80;76.30
22544;DHT22;11438;52.044;8.716;2023-05-16T10:32:58;16.90;76.20
22544;DHT22;11438;52.044;8.716;2023-05-16T10:35:25;16.90;78.80
22544;DHT22;11438;52.044;8.716;2023-05-16T10:37:52;16.90;79.00
22544;DHT22;11438;52.044;8.716;2023-05-16T10:40:18;16.90;78.80
22544;DHT22;11438;52.044;8.716;2023-05-16T10:42:54;16.90;79.10
22544;DHT22;11438;52.044;8.716;2023-05-16T10:45:20;16.90;78.90
22544;DHT22;11438;52.044;8.716;2023-05-16T10:48:00;17.00;80.20
22544;DHT22;11438;52.044;8.716;2023-05-16T10:50:43;17.00;81.10
22544;DHT22;11438;52.044;8.716;2023-05-16T10:53:20;17.10;79.30
22544;DHT22;11438;52.044;8.716;2023-05-16T11:01:18;17.40;77.70
22544;DHT22;11438;52.044;8.716;2023-05-16T11:04:00;17.40;76.60
22544;DHT22;11438;52.044;8.716;2023-05-16T11:06:32;17.40;77.40
22544;DHT22;11438;52.044;8.716;2023-05-16T11:16:53;17.70;76.80
22544;DHT22;11438;52.044;8.716;2023-05-16T11:22:31;17.70;74.90
22544;DHT22;11438;52.044;8.716;2023-05-16T11:25:04;17.70;72.80
22544;DHT22;11438;52.044;8.716;2023-05-16T11:27:44;17.70;74.90
22544;DHT22;11438;52.044;8.716;2023-05-16T11:30:12;17.70;75.40
22544;DHT22;11438;52.044;8.716;2023-05-16T11:32:40;17.70;75.60
22544;DHT22;11438;52.044;8.716;2023-05-16T11:35:07;17.60;77.10
22544;DHT22;11438;52.044;8.716;2023-05-16T11:37:33;17.60;76.10
22544;DHT22;11438;52.044;8.716;2023-05-16T11:40:04;17.70;78.00
22544;DHT22;11438;52.044;8.716;2023-05-16T11:42:35;17.70;78.00
22544;DHT22;11438;52.044;8.716;2023-05-16T11:45:09;17.70;73.90
22544;DHT22;11438;52.044;8.716;2023-05-16T11:47:41;17.80;75.80
22544;DHT22;11438;52.044;8.716;2023-05-16T11:52:37;17.80;76.30
22544;DHT22;11438;52.044;8.716;2023-05-16T11:55:06;17.80;75.30
22544;DHT22;11438;52.044;8.716;2023-05-16T11:57:35;17.80;75.20
22544;DHT22;11438;52.044;8.716;2023-05-16T12:00:18;17.80;74.00
22544;DHT22;11438;52.044;8.716;2023-05-16T12:02:53;17.80;71.90
22544;DHT22;11438;52.044;8.716;2023-05-16T12:05:20;17.80;70.60
22544;DHT22;11438;52.044;8.716;2023-05-16T12:07:50;17.80;70.40
22544;DHT22;11438;52.044;8.716;2023-05-16T12:10:18;17.90;69.60
22544;DHT22;11438;52.044;8.716;2023-05-16T12:12:46;17.90;71.50
22544;DHT22;11438;52.044;8.716;2023-05-16T12:15:12;17.90;72.10
22544;DHT22;11438;52.044;8.716;2023-05-16T12:17:39;17.90;71.00
22544;DHT22;11438;52.044;8.716;2023-05-16T12:20:06;17.90;70.00
22544;DHT22;11438;52.044;8.716;2023-05-16T12:22:38;17.80;68.70
22544;DHT22;11438;52.044;8.716;2023-05-16T12:25:29;17.80;69.80
22544;DHT22;11438;52.044;8.716;2023-05-16T12:27:58;17.80;69.20
22544;DHT22;11438;52.044;8.716;2023-05-16T12:30:25;17.70;69.80
22544;DHT22;11438;52.044;8.716;2023-05-16T12:32:58;17.60;69.60
22544;DHT22;11438;52.044;8.716;2023-05-16T12:35:25;17.50;70.30
22544;DHT22;11438;52.044;8.716;2023-05-16T12:37:54;17.40;70.90
22544;DHT22;11438;52.044;8.716;2023-05-16T12:40:20;17.40;72.40
22544;DHT22;11438;52.044;8.716;2023-05-16T12:42:52;17.40;71.60
22544;DHT22;11438;52.044;8.716;2023-05-16T12:45:18;17.40;71.20
22544;DHT22;11438;52.044;8.716;2023-05-16T12:47:45;17.50;72.10
22544;DHT22;11438;52.044;8.716;2023-05-16T12:50:12;17.60;72.90
22544;DHT22;11438;52.044;8.716;2023-05-16T12:52:53;17.70;73.30
22544;DHT22;11438;52.044;8.716;2023-05-16T12:55:20;17.80;73.20
22544;DHT22;11438;52.044;8.716;2023-05-16T12:57:47;18.00;69.00
22544;DHT22;11438;52.044;8.716;2023-05-16T13:00:15;18.10;67.60
22544;DHT22;11438;52.044;8.716;2023-05-16T13:02:41;18.10;67.70
22544;DHT22;11438;52.044;8.716;2023-05-16T13:05:07;18.10;68.00
22544;DHT22;11438;52.044;8.716;2023-05-16T13:07:33;18.20;69.00
22544;DHT22;11438;52.044;8.716;2023-05-16T13:09:59;18.20;69.00
22544;DHT22;11438;52.044;8.716;2023-05-16T13:12:25;18.30;66.50
22544;DHT22;11438;52.044;8.716;2023-05-16T13:14:55;18.30;65.60
22544;DHT22;11438;52.044;8.716;2023-05-16T13:17:20;18.30;64.20
22544;DHT22;11438;52.044;8.716;2023-05-16T13:19:46;18.30;63.90
22544;DHT22;11438;52.044;8.716;2023-05-16T13:22:11;18.30;65.70
22544;DHT22;11438;52.044;8.716;2023-05-16T13:24:37;18.30;68.70
22544;DHT22;11438;52.044;8.716;2023-05-16T13:27:02;18.30;68.70
22544;DHT22;11438;52.044;8.716;2023-05-16T13:29:28;18.30;68.00
22544;DHT22;11438;52.044;8.716;2023-05-16T13:31:53;18.30;67.50
22544;DHT22;11438;52.044;8.716;2023-05-16T13:34:19;18.20;67.10
22544;DHT22;11438;52.044;8.716;2023-05-16T13:36:45;18.20;68.30
22544;DHT22;11438;52.044;8.716;2023-05-16T13:39:12;18.20;68.90
22544;DHT22;11438;52.044;8.716;2023-05-16T13:41:37;18.20;69.70
22544;DHT22;11438;52.044;8.716;2023-05-16T13:44:05;18.10;69.10
22544;DHT22;11438;52.044;8.716;2023-05-16T13:46:30;18.10;70.20
22544;DHT22;11438;52.044;8.716;2023-05-16T13:48:56;18.10;69.60
22544;DHT22;11438;52.044;8.716;2023-05-16T13:51:21;18.10;70.00
22544;DHT22;11438;52.044;8.716;2023-05-16T13:53:46;18.10;70.40
22544;DHT22;11438;52.044;8.716;2023-05-16T13:56:12;18.10;69.20
22544;DHT22;11438;52.044;8.716;2023-05-16T13:58:37;18.20;69.10
22544;DHT22;11438;52.044;8.716;2023-05-16T14:01:03;18.20;67.50
22544;DHT22;11438;52.044;8.716;2023-05-16T14:03:28;18.20;67.20
22544;DHT22;11438;52.044;8.716;2023-05-16T14:05:54;18.20;66.70
22544;DHT22;11438;52.044;8.716;2023-05-16T14:08:19;18.20;66.50
22544;DHT22;11438;52.044;8.716;2023-05-16T14:10:45;18.10;68.00
22544;DHT22;11438;52.044;8.716;2023-05-16T14:13:10;18.10;67.80
22544;DHT22;11438;52.044;8.716;2023-05-16T14:15:36;18.10;67.80
22544;DHT22;11438;52.044;8.716;2023-05-16T14:18:02;18.20;68.00
22544;DHT22;11438;52.044;8.716;2023-05-16T14:20:28;18.20;67.50
22544;DHT22;11438;52.044;8.716;2023-05-16T14:22:54;18.30;65.80
22544;DHT22;11438;52.044;8.716;2023-05-16T14:25:19;18.30;67.00
22544;DHT22;11438;52.044;8.716;2023-05-16T14:27:45;18.40;67.40
22544;DHT22;11438;52.044;8.716;2023-05-16T14:30:11;18.40;64.50
22544;DHT22;11438;52.044;8.716;2023-05-16T14:32:37;18.50;65.30
22544;DHT22;11438;52.044;8.716;2023-05-16T14:35:03;18.50;64.80
22544;DHT22;11438;52.044;8.716;2023-05-16T14:37:29;18.50;64.00
22544;DHT22;11438;52.044;8.716;2023-05-16T14:39:55;18.50;64.30
22544;DHT22;11438;52.044;8.716;2023-05-16T14:42:21;18.40;64.40
22544;DHT22;11438;52.044;8.716;2023-05-16T14:44:47;18.30;65.30
22544;DHT22;11438;52.044;8.716;2023-05-16T14:47:13;18.30;66.00
22544;DHT22;11438;52.044;8.716;2023-05-16T14:49:39;18.20;65.40
22544;DHT22;11438;52.044;8.716;2023-05-16T14:52:05;18.10;66.00
22544;DHT22;11438;52.044;8.716;2023-05-16T14:54:31;18.00;66.60
22544;DHT22;11438;52.044;8.716;2023-05-16T14:56:56;17.90;66.50
22544;DHT22;11438;52.044;8.716;2023-05-16T14:59:24;17.80;66.60
22544;DHT22;11438;52.044;8.716;2023-05-16T15:01:49;17.80;65.50
22544;DHT22;11438;52.044;8.716;2023-05-16T15:04:15;17.80;64.80
22544;DHT22;11438;52.044;8.716;2023-05-16T15:06:40;17.70;66.30
22544;DHT22;11438;52.044;8.716;2023-05-16T15:09:06;17.70;65.60
22544;DHT22;11438;52.044;8.716;2023-05-16T15:11:31;17.70;66.30
22544;DHT22;11438;52.044;8.716;2023-05-16T15:13:57;17.70;65.80
22544;DHT22;11438;52.044;8.716;2023-05-16T15:16:23;17.80;68.00
22544;DHT22;11438;52.044;8.716;2023-05-16T15:18:48;17.80;67.40
22544;DHT22;11438;52.044;8.716;2023-05-16T15:21:13;17.80;68.60
22544;DHT22;11438;52.044;8.716;2023-05-16T15:23:39;17.90;66.60
22544;DHT22;11438;52.044;8.716;2023-05-16T15:26:04;18.00;66.60
22544;DHT22;11438;52.044;8.716;2023-05-16T15:28:30;18.00;64.60
22544;DHT22;11438;52.044;8.716;2023-05-16T15:30:56;18.00;65.40
22544;DHT22;11438;52.044;8.716;2023-05-16T15:33:21;18.10;66.00
22544;DHT22;11438;52.044;8.716;2023-05-16T15:35:47;18.00;64.70
22544;DHT22;11438;52.044;8.716;2023-05-16T15:38:12;18.00;64.00
22544;DHT22;11438;52.044;8.716;2023-05-16T15:40:38;18.00;64.80
22544;DHT22;11438;52.044;8.716;2023-05-16T15:43:03;18.00;66.30
22544;DHT22;11438;52.044;8.716;2023-05-16T15:45:29;18.00;66.00
22544;DHT22;11438;52.044;8.716;2023-05-16T15:47:54;18.00;64.20
22544;DHT22;11438;52.044;8.716;2023-05-16T15:50:21;18.00;62.70
22544;DHT22;11438;52.044;8.716;2023-05-16T15:52:46;17.90;63.40